createdAt,value
2017-08-13T00:02:02.551Z,88.20
2017-08-13T00:04:29.594Z,87.40
2017-08-13T00:06:56.648Z,87.20
2017-08-13T00:09:23.716Z,87.00
2017-08-13T00:11:50.008Z,86.80
2017-08-13T00:14:16.289Z,86.90
2017-08-13T00:16:42.589Z,87.20
2017-08-13T00:19:09.640Z,87.50
2017-08-13T00:21:35.944Z,87.40
2017-08-13T00:24:02.210Z,87.70
2017-08-13T00:26:28.748Z,87.80
2017-08-13T00:28:55.108Z,87.80
2017-08-13T00:31:21.439Z,87.70
2017-08-13T00:33:47.742Z,88.10
2017-08-13T00:36:14.016Z,88.40
2017-08-13T00:38:40.310Z,88.40
2017-08-13T00:41:06.604Z,88.70
2017-08-13T00:43:40.480Z,89.10
2017-08-13T00:46:06.777Z,89.10
2017-08-13T00:48:33.111Z,89.20
2017-08-13T00:50:59.608Z,88.80
2017-08-13T00:53:26.642Z,88.80
2017-08-13T00:55:52.997Z,88.80
2017-08-13T00:58:19.291Z,88.20
2017-08-13T01:00:45.588Z,88.00
2017-08-13T01:03:11.908Z,88.00
2017-08-13T01:05:38.183Z,88.10
2017-08-13T01:08:05.239Z,88.40
2017-08-13T01:10:32.249Z,88.70
2017-08-13T01:12:58.548Z,88.60
2017-08-13T01:15:25.003Z,88.30
2017-08-13T01:17:51.311Z,87.90
2017-08-13T01:20:17.616Z,88.10
2017-08-13T01:22:43.943Z,88.20
2017-08-13T01:25:11.103Z,88.30
2017-08-13T01:27:37.396Z,88.30
2017-08-13T01:30:03.704Z,87.80
2017-08-13T01:32:30.081Z,88.00
2017-08-13T01:34:57.104Z,88.10
2017-08-13T01:37:23.382Z,88.00
2017-08-13T01:39:49.691Z,88.20
2017-08-13T01:42:16.707Z,88.30
2017-08-13T01:44:43.039Z,87.90
2017-08-13T01:47:09.351Z,88.00
2017-08-13T01:49:35.639Z,88.30
2017-08-13T01:52:02.773Z,88.00
2017-08-13T01:54:29.847Z,88.40
2017-08-13T01:56:56.121Z,88.40
2017-08-13T01:59:22.387Z,88.50
2017-08-13T02:01:49.627Z,88.70
2017-08-13T02:04:15.991Z,88.60
2017-08-13T02:06:42.292Z,88.60
2017-08-13T02:09:09.351Z,87.80
2017-08-13T02:11:36.434Z,87.90
2017-08-13T02:14:02.740Z,87.90
2017-08-13T02:16:29.040Z,87.80
2017-08-13T02:18:55.328Z,87.60
2017-08-13T02:21:21.700Z,87.70
2017-08-13T02:23:48.032Z,87.60
2017-08-13T02:26:15.055Z,87.40
2017-08-13T02:28:41.391Z,87.20
2017-08-13T02:31:07.715Z,87.60
2017-08-13T02:33:33.999Z,87.70
2017-08-13T02:36:00.356Z,87.80
2017-08-13T02:38:26.640Z,88.20
2017-08-13T02:40:52.921Z,88.40
2017-08-13T02:43:19.232Z,88.50
2017-08-13T02:45:45.560Z,88.60
2017-08-13T02:48:11.844Z,88.90
2017-08-13T02:50:38.880Z,88.90
2017-08-13T02:53:05.192Z,88.70
2017-08-13T02:55:31.481Z,88.50
2017-08-13T02:57:57.833Z,88.00
2017-08-13T03:00:24.497Z,87.70
2017-08-13T03:02:50.793Z,87.60
2017-08-13T03:05:17.099Z,87.90
2017-08-13T03:07:44.100Z,87.90
2017-08-13T03:10:10.391Z,87.90
2017-08-13T03:12:36.679Z,88.10
2017-08-13T03:15:02.981Z,88.40
2017-08-13T03:17:29.264Z,88.60
2017-08-13T03:19:56.315Z,89.30
2017-08-13T03:22:22.604Z,89.10
2017-08-13T03:24:48.931Z,89.40
2017-08-13T03:27:15.259Z,89.50
2017-08-13T03:29:41.718Z,89.80
2017-08-13T03:32:08.024Z,90.00
2017-08-13T03:34:34.341Z,90.10
2017-08-13T03:37:00.653Z,90.10
2017-08-13T03:39:26.947Z,90.20
2017-08-13T03:41:54.159Z,90.30
2017-08-13T03:44:20.456Z,90.30
2017-08-13T03:46:46.779Z,90.30
2017-08-13T03:49:13.071Z,90.20
2017-08-13T03:51:40.098Z,90.40
2017-08-13T03:54:06.413Z,90.20
2017-08-13T03:56:32.689Z,90.30
2017-08-13T03:58:59.741Z,90.30
2017-08-13T04:01:26.763Z,90.50
2017-08-13T04:03:53.087Z,90.50
2017-08-13T04:06:19.396Z,90.70
2017-08-13T04:08:45.664Z,90.90
2017-08-13T04:11:11.951Z,90.70
2017-08-13T04:13:38.274Z,90.80
2017-08-13T04:16:04.560Z,90.90
2017-08-13T04:18:31.608Z,90.60
2017-08-13T04:20:58.624Z,90.70
2017-08-13T04:23:25.057Z,90.70
2017-08-13T04:25:51.336Z,90.70
2017-08-13T04:28:17.694Z,90.80
2017-08-13T04:30:43.992Z,90.80
2017-08-13T04:33:10.304Z,90.90
2017-08-13T04:35:37.359Z,91.30
2017-08-13T04:38:04.401Z,91.00
2017-08-13T04:40:30.979Z,90.90
2017-08-13T04:42:57.400Z,90.90
2017-08-13T04:45:23.699Z,90.80
2017-08-13T04:47:50.734Z,90.70
2017-08-13T04:50:17.764Z,90.60
2017-08-13T04:52:44.087Z,90.60
2017-08-13T04:55:10.396Z,90.60
2017-08-13T04:57:36.731Z,90.60
2017-08-13T05:00:03.115Z,90.50
2017-08-13T05:02:30.181Z,90.40
2017-08-13T05:04:56.475Z,90.40
2017-08-13T05:07:23.505Z,90.10
2017-08-13T05:09:49.800Z,90.10
2017-08-13T05:12:16.064Z,90.00
2017-08-13T05:14:42.414Z,90.00
2017-08-13T05:17:09.435Z,89.80
2017-08-13T05:19:35.732Z,89.70
2017-08-13T05:22:02.073Z,89.70
2017-08-13T05:24:28.388Z,89.60
2017-08-13T05:26:54.711Z,88.40
2017-08-13T05:29:21.019Z,88.20
2017-08-13T05:31:47.344Z,88.30
2017-08-13T05:34:13.596Z,88.30
2017-08-13T05:36:40.659Z,88.20
2017-08-13T05:39:06.984Z,88.20
2017-08-13T05:41:33.306Z,87.70
2017-08-13T05:43:59.640Z,86.30
2017-08-13T05:46:25.931Z,84.70
2017-08-13T05:48:52.289Z,84.30
2017-08-13T05:51:19.354Z,83.10
2017-08-13T05:53:45.828Z,83.10
2017-08-13T05:56:12.200Z,83.30
2017-08-13T05:58:39.280Z,83.00
2017-08-13T06:01:05.677Z,83.00
2017-08-13T06:03:32.703Z,82.20
2017-08-13T06:05:59.010Z,81.80
2017-08-13T06:08:25.364Z,81.60
2017-08-13T06:10:52.403Z,81.00
2017-08-13T06:13:18.683Z,81.00
2017-08-13T06:15:44.992Z,81.00
2017-08-13T06:18:12.031Z,79.80
2017-08-13T06:20:39.067Z,77.30
2017-08-13T06:23:06.104Z,74.90
2017-08-13T06:25:32.426Z,74.40
2017-08-13T06:27:58.727Z,72.80
2017-08-13T06:30:25.024Z,71.70
2017-08-13T06:32:51.363Z,70.80
2017-08-13T06:35:17.650Z,70.10
2017-08-13T06:37:43.936Z,69.70
2017-08-13T06:40:10.283Z,68.80
2017-08-13T06:42:36.573Z,69.80
2017-08-13T06:45:03.638Z,72.20
2017-08-13T06:47:29.944Z,72.20
2017-08-13T06:49:56.275Z,73.40
2017-08-13T06:52:23.426Z,73.40
2017-08-13T06:54:49.748Z,73.40
2017-08-13T06:57:16.059Z,73.30
2017-08-13T06:59:42.347Z,70.10
2017-08-13T07:02:08.663Z,64.50
2017-08-13T07:04:34.971Z,62.30
2017-08-13T07:07:01.387Z,60.70
2017-08-13T07:09:27.738Z,60.00
2017-08-13T07:11:54.783Z,56.20
2017-08-13T07:14:21.822Z,52.40
2017-08-13T07:16:48.143Z,52.40
2017-08-13T07:19:15.340Z,52.80
2017-08-13T07:21:41.627Z,52.70
2017-08-13T07:24:07.968Z,53.40
2017-08-13T07:26:35.156Z,50.70
2017-08-13T07:29:01.504Z,50.70
2017-08-13T07:31:27.839Z,47.10
2017-08-13T07:33:54.186Z,43.50
2017-08-13T07:36:20.451Z,42.30
2017-08-13T07:38:46.777Z,40.90
2017-08-13T07:41:13.820Z,43.10
2017-08-13T07:43:40.124Z,43.10
2017-08-13T07:46:06.450Z,43.40
2017-08-13T07:48:32.757Z,42.00
2017-08-13T07:50:59.107Z,41.70
2017-08-13T07:53:25.407Z,42.90
2017-08-13T07:55:51.699Z,44.60
2017-08-13T07:58:18.763Z,47.90
2017-08-13T08:00:45.783Z,48.40
2017-08-13T08:03:12.879Z,47.30
2017-08-13T08:05:39.221Z,47.20
2017-08-13T08:08:05.563Z,46.90
2017-08-13T08:10:31.904Z,47.50
2017-08-13T08:12:58.216Z,48.20
2017-08-13T08:15:24.484Z,48.20
2017-08-13T08:17:50.801Z,49.20
2017-08-13T08:20:17.088Z,48.80
2017-08-13T08:22:43.460Z,50.30
2017-08-13T08:25:09.787Z,52.20
2017-08-13T08:27:36.160Z,53.30
2017-08-13T08:30:03.216Z,52.90
2017-08-13T08:32:29.506Z,52.80
2017-08-13T08:34:55.819Z,50.10
2017-08-13T08:37:22.096Z,42.10
2017-08-13T08:39:49.159Z,30.50
2017-08-13T08:42:15.491Z,30.40
2017-08-13T08:44:41.813Z,27.80
2017-08-13T08:47:08.103Z,24.80
2017-08-13T08:49:34.408Z,23.60
2017-08-13T08:52:00.716Z,21.20
2017-08-13T08:54:27.041Z,21.00
2017-08-13T08:56:53.412Z,19.50
2017-08-13T08:59:19.724Z,18.90
2017-08-13T09:01:46.016Z,18.40
2017-08-13T09:04:12.357Z,19.70
2017-08-13T09:06:38.710Z,18.60
2017-08-13T09:09:04.987Z,18.90
2017-08-13T09:11:32.027Z,18.90
2017-08-13T09:13:58.337Z,19.10
2017-08-13T09:16:24.668Z,18.70
2017-08-13T09:18:51.109Z,19.00
2017-08-13T09:21:17.437Z,19.00
2017-08-13T09:23:43.735Z,18.90
2017-08-13T09:26:10.265Z,19.80
2017-08-13T09:28:36.572Z,21.00
2017-08-13T09:31:02.881Z,21.90
2017-08-13T09:33:29.975Z,21.70
2017-08-13T09:35:56.311Z,21.20
2017-08-13T09:38:22.600Z,20.80
2017-08-13T09:40:49.684Z,20.70
2017-08-13T09:43:15.951Z,20.60
2017-08-13T09:45:43.047Z,22.00
2017-08-13T09:48:09.341Z,22.00
2017-08-13T09:50:36.396Z,21.20
2017-08-13T09:53:03.440Z,23.00
2017-08-13T09:55:30.485Z,24.30
2017-08-13T09:57:57.581Z,26.80
2017-08-13T10:00:23.867Z,26.80
2017-08-13T10:02:51.112Z,32.80
2017-08-13T10:05:17.465Z,32.10
2017-08-13T10:07:43.816Z,34.30
2017-08-13T10:10:10.176Z,37.50
2017-08-13T10:12:36.473Z,38.40
2017-08-13T10:15:02.788Z,38.80
2017-08-13T10:17:29.059Z,40.70
2017-08-13T10:19:55.387Z,41.10
2017-08-13T10:22:21.728Z,42.40
2017-08-13T10:24:48.058Z,42.10
2017-08-13T10:27:14.374Z,45.00
2017-08-13T10:29:40.677Z,45.00
2017-08-13T10:32:07.222Z,44.30
2017-08-13T10:34:33.548Z,41.80
2017-08-13T10:36:59.858Z,43.30
2017-08-13T10:39:27.158Z,42.00
2017-08-13T10:41:53.510Z,41.90
2017-08-13T10:44:19.854Z,42.80
2017-08-13T10:46:46.155Z,43.10
2017-08-13T10:49:12.441Z,44.90
2017-08-13T10:51:38.841Z,45.70
2017-08-13T10:54:05.167Z,43.40
2017-08-13T10:56:31.474Z,45.00
2017-08-13T10:58:57.818Z,46.80
2017-08-13T11:01:24.148Z,46.80
2017-08-13T11:03:50.441Z,47.50
2017-08-13T11:06:16.755Z,48.80
2017-08-13T11:08:43.075Z,47.80
2017-08-13T11:11:10.146Z,48.60
2017-08-13T11:13:36.493Z,48.50
2017-08-13T11:16:02.811Z,47.50
2017-08-13T11:18:29.129Z,46.60
2017-08-13T11:20:55.436Z,46.00
2017-08-13T11:23:21.879Z,45.70
2017-08-13T11:25:48.208Z,45.70
2017-08-13T11:28:15.297Z,45.10
2017-08-13T11:30:41.739Z,45.10
2017-08-13T11:33:08.083Z,46.10
2017-08-13T11:35:34.373Z,46.90
2017-08-13T11:38:00.707Z,46.50
2017-08-13T11:40:27.017Z,46.90
2017-08-13T11:42:53.347Z,45.20
2017-08-13T11:45:19.660Z,45.00
2017-08-13T11:47:45.957Z,45.70
2017-08-13T11:50:12.301Z,45.30
2017-08-13T11:52:38.593Z,45.20
2017-08-13T11:55:04.968Z,44.40
2017-08-13T11:57:31.332Z,44.20
2017-08-13T11:59:57.703Z,43.40
2017-08-13T12:02:24.141Z,43.80
2017-08-13T12:04:50.467Z,45.10
2017-08-13T12:07:16.827Z,43.90
2017-08-13T12:09:43.151Z,44.50
2017-08-13T12:12:09.575Z,42.70
2017-08-13T12:14:35.941Z,44.30
2017-08-13T12:17:02.259Z,46.00
2017-08-13T12:19:29.359Z,43.40
2017-08-13T12:21:55.725Z,43.30
2017-08-13T12:24:22.765Z,43.20
2017-08-13T12:26:49.097Z,43.30
2017-08-13T12:29:15.400Z,45.50
2017-08-13T12:31:41.691Z,44.80
2017-08-13T12:34:08.005Z,45.60
2017-08-13T12:36:35.104Z,43.90
2017-08-13T12:39:01.404Z,43.90
2017-08-13T12:41:27.747Z,43.20
2017-08-13T12:43:54.059Z,43.10
2017-08-13T12:46:20.357Z,43.70
2017-08-13T12:48:46.692Z,42.60
2017-08-13T12:51:13.024Z,44.30
2017-08-13T12:53:39.346Z,44.30
2017-08-13T12:56:06.441Z,43.60
2017-08-13T12:58:32.817Z,44.10
2017-08-13T13:00:59.121Z,43.50
2017-08-13T13:03:25.476Z,43.10
2017-08-13T13:05:51.758Z,41.20
2017-08-13T13:08:18.084Z,38.90
2017-08-13T13:10:44.400Z,38.60
2017-08-13T13:13:10.679Z,39.30
2017-08-13T13:15:37.075Z,39.80
2017-08-13T13:18:03.424Z,41.10
2017-08-13T13:20:29.744Z,40.00
2017-08-13T13:22:56.060Z,40.10
2017-08-13T13:25:23.337Z,40.70
2017-08-13T13:27:49.669Z,40.70
2017-08-13T13:30:15.992Z,40.00
2017-08-13T13:32:42.313Z,40.30
2017-08-13T13:35:08.726Z,40.30
2017-08-13T13:37:35.009Z,40.20
2017-08-13T13:40:01.348Z,39.90
2017-08-13T13:42:27.673Z,40.10
2017-08-13T13:44:54.066Z,41.20
2017-08-13T13:47:20.568Z,41.10
2017-08-13T13:49:46.878Z,40.90
2017-08-13T13:52:13.220Z,40.60
2017-08-13T13:54:40.332Z,39.90
2017-08-13T13:57:06.667Z,39.90
2017-08-13T13:59:33.001Z,39.60
2017-08-13T14:01:59.493Z,39.50
2017-08-13T14:04:25.856Z,38.50
2017-08-13T14:06:52.185Z,38.30
2017-08-13T14:09:18.510Z,38.90
2017-08-13T14:11:44.859Z,39.20
2017-08-13T14:14:11.233Z,39.70
2017-08-13T14:16:37.587Z,38.80
2017-08-13T14:19:03.908Z,39.00
2017-08-13T14:21:30.971Z,38.70
2017-08-13T14:23:57.284Z,38.70
2017-08-13T14:26:24.395Z,37.60
2017-08-13T14:28:50.703Z,37.60
2017-08-13T14:31:17.056Z,38.00
2017-08-13T14:33:43.434Z,38.30
2017-08-13T14:36:09.759Z,39.90
2017-08-13T14:38:36.907Z,38.60
2017-08-13T14:41:03.984Z,38.80
2017-08-13T14:43:30.315Z,38.80
2017-08-13T14:45:56.662Z,40.30
2017-08-13T14:48:22.984Z,39.50
2017-08-13T14:50:49.293Z,39.20
2017-08-13T14:53:15.839Z,39.00
2017-08-13T14:55:42.156Z,39.50
2017-08-13T14:58:08.524Z,39.20
2017-08-13T15:00:34.847Z,39.60
2017-08-13T15:03:01.168Z,41.00
2017-08-13T15:05:27.524Z,41.10
2017-08-13T15:07:53.840Z,40.30
2017-08-13T15:10:20.160Z,40.50
2017-08-13T15:12:46.462Z,39.80
2017-08-13T15:15:12.755Z,40.20
2017-08-13T15:17:39.096Z,39.80
2017-08-13T15:20:05.387Z,38.90
2017-08-13T15:22:31.687Z,38.50
2017-08-13T15:24:57.977Z,37.80
2017-08-13T15:27:24.357Z,37.20
2017-08-13T15:29:50.659Z,36.90
2017-08-13T15:32:16.986Z,36.90
2017-08-13T15:34:43.512Z,37.00
2017-08-13T15:37:10.560Z,38.20
2017-08-13T15:39:37.622Z,37.60
2017-08-13T15:42:04.667Z,38.10
2017-08-13T15:44:30.996Z,38.00
2017-08-13T15:46:57.281Z,36.40
2017-08-13T15:49:23.607Z,36.70
2017-08-13T15:51:49.955Z,36.70
2017-08-13T15:54:16.265Z,37.50
2017-08-13T15:56:42.584Z,38.00
2017-08-13T15:59:08.940Z,38.50
2017-08-13T16:01:35.245Z,38.10
2017-08-13T16:04:01.573Z,38.50
2017-08-13T16:06:27.913Z,38.30
2017-08-13T16:08:54.288Z,37.90
2017-08-13T16:11:21.646Z,39.20
2017-08-13T16:13:50.184Z,38.30
2017-08-13T16:16:16.484Z,38.30
2017-08-13T16:18:43.009Z,39.10
2017-08-13T16:21:09.333Z,38.80
2017-08-13T16:23:35.640Z,39.60
2017-08-13T16:26:02.124Z,38.90
2017-08-13T16:28:28.476Z,38.60
2017-08-13T16:30:54.796Z,40.20
2017-08-13T16:33:21.336Z,39.70
2017-08-13T16:35:47.680Z,40.70
2017-08-13T16:38:14.047Z,41.10
2017-08-13T16:40:40.394Z,41.00
2017-08-13T16:43:06.750Z,40.40
2017-08-13T16:45:33.092Z,40.40
2017-08-13T16:47:59.552Z,40.10
2017-08-13T16:50:25.893Z,40.10
2017-08-13T16:52:52.213Z,40.30
2017-08-13T16:55:18.512Z,39.40
2017-08-13T16:57:44.840Z,38.60
2017-08-13T17:00:11.145Z,39.20
2017-08-13T17:02:37.471Z,39.60
2017-08-13T17:05:03.789Z,40.30
2017-08-13T17:07:30.144Z,40.50
2017-08-13T17:09:56.583Z,41.70
2017-08-13T17:12:22.956Z,41.10
2017-08-13T17:14:49.358Z,40.90
2017-08-13T17:17:15.687Z,41.30
2017-08-13T17:19:42.003Z,41.40
2017-08-13T17:22:08.312Z,41.30
2017-08-13T17:24:34.649Z,41.20
2017-08-13T17:27:01.020Z,41.60
2017-08-13T17:29:27.376Z,42.20
2017-08-13T17:31:53.727Z,42.30
2017-08-13T17:34:20.812Z,42.20
2017-08-13T17:36:47.173Z,42.10
2017-08-13T17:39:13.573Z,42.30
2017-08-13T17:41:39.909Z,43.40
2017-08-13T17:44:06.249Z,42.90
2017-08-13T17:46:32.575Z,42.80
2017-08-13T17:48:58.907Z,42.70
2017-08-13T17:51:25.587Z,42.80
2017-08-13T17:53:52.006Z,43.10
2017-08-13T17:56:18.432Z,43.30
2017-08-13T17:58:44.773Z,43.20
2017-08-13T18:01:11.132Z,43.20
2017-08-13T18:03:38.157Z,43.10
2017-08-13T18:06:05.277Z,43.00
2017-08-13T18:08:31.600Z,43.00
2017-08-13T18:10:57.970Z,42.80
2017-08-13T18:13:24.338Z,43.30
2017-08-13T18:15:50.681Z,43.70
2017-08-13T18:18:17.024Z,43.20
2017-08-13T18:20:43.455Z,42.80
2017-08-13T18:23:09.828Z,43.60
2017-08-13T18:25:36.252Z,48.00
2017-08-13T18:28:02.601Z,49.60
2017-08-13T18:30:30.015Z,50.60
2017-08-13T18:32:56.374Z,50.60
2017-08-13T18:35:23.438Z,50.80
2017-08-13T18:37:49.817Z,50.80
2017-08-13T18:40:16.125Z,50.70
2017-08-13T18:42:42.437Z,50.80
2017-08-13T18:45:08.816Z,51.20
2017-08-13T18:47:35.258Z,51.30
2017-08-13T18:50:01.661Z,51.50
2017-08-13T18:52:31.418Z,52.20
2017-08-13T18:54:58.299Z,52.10
2017-08-13T18:57:24.811Z,52.20
2017-08-13T18:59:54.332Z,52.60
2017-08-13T19:02:20.885Z,52.80
2017-08-13T19:04:47.415Z,52.70
2017-08-13T19:07:14.156Z,52.70
2017-08-13T19:09:41.196Z,53.30
2017-08-13T19:12:07.933Z,53.80
2017-08-13T19:14:34.680Z,54.00
2017-08-13T19:17:01.416Z,54.20
2017-08-13T19:19:28.059Z,54.50
2017-08-13T19:21:54.790Z,54.90
2017-08-13T19:24:21.763Z,55.10
2017-08-13T19:26:49.397Z,55.20
2017-08-13T19:29:16.138Z,55.10
2017-08-13T19:31:42.883Z,55.30
2017-08-13T19:34:09.717Z,55.70
2017-08-13T19:36:36.561Z,56.50
2017-08-13T19:39:03.359Z,56.90
2017-08-13T19:41:37.003Z,57.40
2017-08-13T19:44:03.846Z,57.50
2017-08-13T19:46:30.585Z,57.60
2017-08-13T19:48:58.658Z,57.60
2017-08-13T19:51:25.504Z,57.90
2017-08-13T19:53:52.241Z,58.40
2017-08-13T19:56:19.183Z,59.30
2017-08-13T19:58:45.817Z,59.30
2017-08-13T20:01:13.592Z,60.00
2017-08-13T20:03:40.330Z,60.70
2017-08-13T20:06:08.835Z,60.70
2017-08-13T20:08:36.880Z,61.30
2017-08-13T20:11:04.636Z,61.80
2017-08-13T20:13:32.966Z,61.50
2017-08-13T20:16:00.896Z,61.70
2017-08-13T20:18:30.394Z,61.80
2017-08-13T20:20:57.601Z,61.70
2017-08-13T20:23:24.696Z,61.90
2017-08-13T20:25:52.320Z,61.80
2017-08-13T20:28:20.174Z,62.10
2017-08-13T20:30:46.461Z,62.20
2017-08-13T20:33:13.810Z,62.80
2017-08-13T20:35:40.591Z,63.00
2017-08-13T20:38:10.101Z,63.20
2017-08-13T20:40:37.157Z,63.50
2017-08-13T20:43:05.028Z,64.90
2017-08-13T20:45:31.427Z,64.10
2017-08-13T20:47:58.292Z,64.40
2017-08-13T20:50:25.885Z,64.80
2017-08-13T20:52:52.373Z,65.30
2017-08-13T20:55:19.233Z,65.60
2017-08-13T20:57:46.780Z,66.10
2017-08-13T21:00:13.173Z,66.00
2017-08-13T21:02:39.530Z,66.70
2017-08-13T21:05:05.833Z,67.00
2017-08-13T21:07:32.181Z,67.30
2017-08-13T21:09:58.493Z,67.70
2017-08-13T21:12:25.153Z,68.00
2017-08-13T21:14:51.472Z,68.30
2017-08-13T21:17:17.812Z,68.50
2017-08-13T21:19:44.149Z,68.70
2017-08-13T21:22:10.520Z,69.10
2017-08-13T21:24:37.575Z,69.40
2017-08-13T21:27:04.748Z,69.30
2017-08-13T21:29:31.096Z,69.30
2017-08-13T21:31:57.433Z,69.70
2017-08-13T21:34:23.755Z,69.90
2017-08-13T21:36:50.068Z,70.30
2017-08-13T21:39:16.444Z,70.50
2017-08-13T21:41:42.766Z,70.80
2017-08-13T21:44:09.091Z,71.20
2017-08-13T21:46:35.643Z,71.70
2017-08-13T21:49:02.028Z,72.10
2017-08-13T21:51:28.431Z,72.20
2017-08-13T21:53:55.463Z,72.40
2017-08-13T21:56:21.977Z,72.40
2017-08-13T21:58:48.340Z,72.30
2017-08-13T22:01:14.705Z,72.50
2017-08-13T22:03:41.000Z,72.70
2017-08-13T22:06:08.056Z,72.30
2017-08-13T22:08:34.392Z,72.30
2017-08-13T22:11:00.685Z,72.50
2017-08-13T22:13:26.995Z,72.90
2017-08-13T22:15:53.324Z,73.10
2017-08-13T22:18:19.600Z,73.60
2017-08-13T22:20:46.632Z,74.10
2017-08-13T22:23:13.735Z,74.40
2017-08-13T22:25:40.088Z,74.40
2017-08-13T22:28:06.429Z,74.80
2017-08-13T22:30:33.535Z,74.80
2017-08-13T22:32:59.813Z,74.80
2017-08-13T22:35:26.904Z,75.60
2017-08-13T22:37:53.457Z,75.60
2017-08-13T22:40:19.782Z,75.70
2017-08-13T22:42:46.052Z,75.80
2017-08-13T22:45:12.321Z,76.20
2017-08-13T22:47:38.633Z,76.30
2017-08-13T22:50:05.632Z,76.80
2017-08-13T22:52:31.953Z,76.80
2017-08-13T22:54:58.253Z,77.10
2017-08-13T22:57:24.540Z,77.10
2017-08-13T22:59:50.832Z,77.30
2017-08-13T23:02:17.240Z,77.50
2017-08-13T23:04:44.291Z,77.40
2017-08-13T23:07:10.741Z,77.30
2017-08-13T23:09:37.104Z,77.30
2017-08-13T23:12:03.440Z,77.30
2017-08-13T23:14:29.711Z,77.20
2017-08-13T23:16:56.019Z,77.40
2017-08-13T23:19:22.408Z,77.40
2017-08-13T23:21:48.725Z,77.40
2017-08-13T23:24:15.104Z,77.60
2017-08-13T23:26:41.412Z,77.60
2017-08-13T23:29:07.844Z,77.80
2017-08-13T23:31:34.119Z,78.00
2017-08-13T23:34:01.344Z,78.50
2017-08-13T23:36:27.673Z,78.50
2017-08-13T23:38:53.983Z,78.80
2017-08-13T23:41:20.299Z,79.30
2017-08-13T23:43:46.567Z,79.20
2017-08-13T23:46:12.851Z,79.40
2017-08-13T23:48:39.151Z,79.70
2017-08-13T23:51:06.164Z,80.50
2017-08-13T23:53:32.472Z,80.50
2017-08-13T23:55:58.771Z,81.00
2017-08-13T23:58:25.115Z,81.30
